Time;durP1;ratioP1;P1;durP2;ratioP2;P2;SDS_P1;SDS_P2;PMS_P1;PMS_P2;Temp;Humidity;BMP_temperature;BMP_pressure;BME280_temperature;BME280_humidity;BME280_pressure;Samples;Min_cycle;Max_cycle;Signal;HPM_P1;HPM_P2
2022/04/05 00:00:13;;;;;;;5.38;4.88;;;7.10;97.60;;;;;;5068992;28;20028;-82
2022/04/05 00:02:39;;;;;;;5.43;4.93;;;7.10;97.90;;;;;;5068518;28;20048;-82
2022/04/05 00:05:05;;;;;;;4.47;4.07;;;7.10;98.10;;;;;;5071005;28;20452;-82
2022/04/05 00:07:30;;;;;;;4.90;4.45;;;7.10;98.40;;;;;;5072549;28;20050;-82
2022/04/05 00:09:56;;;;;;;4.72;3.63;;;7.00;98.50;;;;;;5071696;28;20036;-81
2022/04/05 00:12:21;;;;;;;4.38;3.80;;;7.00;98.60;;;;;;5055266;28;20032;-82
2022/04/05 00:14:48;;;;;;;5.18;4.10;;;6.90;98.60;;;;;;5071007;28;20076;-81
2022/04/05 00:17:13;;;;;;;5.50;3.88;;;6.90;98.80;;;;;;5072632;28;20033;-81
2022/04/05 00:19:39;;;;;;;4.18;3.75;;;6.90;98.90;;;;;;5054908;28;20389;-81
2022/04/05 00:22:04;;;;;;;5.43;3.83;;;6.90;99.20;;;;;;5072412;28;20028;-81
2022/04/05 00:24:30;;;;;;;5.00;3.88;;;6.90;99.20;;;;;;5072507;28;20028;-81
2022/04/05 00:26:56;;;;;;;5.18;3.65;;;6.80;99.10;;;;;;5071801;28;20715;-81
2022/04/05 00:29:22;;;;;;;5.32;4.50;;;6.80;99.40;;;;;;5052619;28;20025;-81
2022/04/05 00:31:49;;;;;;;5.40;4.63;;;6.80;99.40;;;;;;5061098;28;20029;-82
2022/04/05 00:34:14;;;;;;;4.93;4.25;;;6.80;99.30;;;;;;5072553;28;20036;-81
2022/04/05 00:36:40;;;;;;;4.47;4.07;;;6.90;99.40;;;;;;5070770;28;20532;-80
2022/04/05 00:39:05;;;;;;;4.90;4.40;;;6.90;99.50;;;;;;5072185;28;20064;-81
2022/04/05 00:41:31;;;;;;;5.40;4.90;;;6.90;99.40;;;;;;5072064;28;20488;-81
2022/04/05 00:43:57;;;;;;;4.47;3.78;;;6.90;99.50;;;;;;5075618;28;20024;-82
2022/04/05 00:46:22;;;;;;;4.88;4.35;;;6.90;99.50;;;;;;5079799;28;20060;-81
2022/04/05 00:48:55;;;;;;;5.32;4.38;;;6.90;99.50;;;;;;5072176;28;20139;-81
2022/04/05 00:51:22;;;;;;;;;;;6.90;99.60;;;;;;5071644;28;20021;-81
2022/04/05 00:53:52;;;;;;;7.25;4.00;;;6.90;99.70;;;;;;5071577;28;19915;-81
2022/04/05 00:56:19;;;;;;;6.30;4.38;;;6.80;99.90;;;;;;5071291;28;20024;-81
2022/04/05 00:58:48;;;;;;;4.88;4.30;;;6.70;99.90;;;;;;5071720;28;20469;-82
2022/04/05 01:01:18;;;;;;;5.97;4.75;;;6.70;99.90;;;;;;5071296;28;20020;-81
2022/04/05 01:03:48;;;;;;;5.65;5.05;;;6.70;99.90;;;;;;5071534;28;20024;-82
2022/04/05 01:06:21;;;;;;;7.40;5.10;;;6.70;99.90;;;;;;5071531;28;20086;-81
2022/04/05 01:08:47;;;;;;;6.47;5.00;;;6.70;99.90;;;;;;5053777;28;20032;-82
2022/04/05 01:11:12;;;;;;;6.00;5.40;;;6.70;99.90;;;;;;5072212;28;20090;-81
2022/04/05 01:13:38;;;;;;;4.50;3.95;;;6.80;99.90;;;;;;5072007;28;20028;-81
2022/04/05 01:16:04;;;;;;;5.15;4.30;;;6.80;99.90;;;;;;5070066;28;20032;-82
2022/04/05 01:18:29;;;;;;;5.90;5.03;;;6.80;99.90;;;;;;5053742;28;20071;-82
2022/04/05 01:20:56;;;;;;;5.25;4.25;;;6.80;99.90;;;;;;5080949;28;20024;-81
2022/04/05 01:23:22;;;;;;;6.45;4.70;;;6.80;99.90;;;;;;5087552;28;20027;-82
2022/04/05 01:25:49;;;;;;;5.32;4.68;;;6.90;99.90;;;;;;5083879;28;20024;-82
2022/04/05 01:28:14;;;;;;;5.30;4.60;;;6.80;99.90;;;;;;5083800;28;20020;-81
2022/04/05 01:30:40;;;;;;;5.65;4.68;;;6.90;99.90;;;;;;5076273;28;20024;-81
2022/04/05 01:33:06;;;;;;;6.32;4.72;;;6.80;99.90;;;;;;5085232;28;20028;-81
2022/04/05 01:35:32;;;;;;;5.30;4.63;;;6.80;99.90;;;;;;5058677;28;20020;-81
2022/04/05 01:37:58;;;;;;;5.35;4.60;;;6.90;99.90;;;;;;5070691;28;20039;-81
2022/04/05 01:40:25;;;;;;;4.88;4.38;;;6.90;99.90;;;;;;5070242;28;20525;-82
2022/04/05 01:42:50;;;;;;;4.43;3.95;;;6.80;99.90;;;;;;5069571;28;20020;-82
2022/04/05 01:45:16;;;;;;;4.60;4.10;;;6.90;99.90;;;;;;5071667;28;20020;-81
2022/04/05 01:47:41;;;;;;;4.97;4.03;;;6.90;99.90;;;;;;5070705;28;20031;-81
2022/04/05 01:50:07;;;;;;;5.28;4.30;;;6.80;99.90;;;;;;5069988;28;20117;-80
2022/04/05 01:52:33;;;;;;;4.43;3.88;;;6.80;99.90;;;;;;5070580;28;20389;-82
2022/04/05 01:54:59;;;;;;;4.65;4.03;;;6.80;99.90;;;;;;5070414;28;20028;-82
2022/04/05 01:57:24;;;;;;;4.70;4.20;;;6.80;99.90;;;;;;5070113;28;20036;-81
2022/04/05 01:59:50;;;;;;;5.00;4.22;;;6.80;99.90;;;;;;5051847;28;20419;-82
2022/04/05 02:02:15;;;;;;;5.28;4.45;;;6.70;99.90;;;;;;5069739;28;20435;-82
2022/04/05 02:04:41;;;;;;;5.55;3.65;;;6.70;99.90;;;;;;5070285;28;20572;-82
2022/04/05 02:07:15;;;;;;;4.80;4.30;;;6.70;99.90;;;;;;5069068;28;20036;-82
2022/04/05 02:09:41;;;;;;;3.90;3.42;;;6.70;99.90;;;;;;5070482;28;20550;-82
2022/04/05 02:12:07;;;;;;;3.90;3.47;;;6.70;99.90;;;;;;5052509;28;20472;-81
2022/04/05 02:14:32;;;;;;;4.85;3.97;;;6.60;99.90;;;;;;5070219;28;20031;-81
2022/04/05 02:16:58;;;;;;;3.90;3.17;;;6.60;99.90;;;;;;5069612;28;20409;-81
2022/04/05 02:19:24;;;;;;;4.10;3.33;;;6.60;99.90;;;;;;5070041;28;20032;-81
2022/04/05 02:21:49;;;;;;;4.18;3.40;;;6.60;99.90;;;;;;5069441;28;20401;-81
2022/04/05 02:24:15;;;;;;;4.93;4.13;;;6.50;99.90;;;;;;5070178;28;20032;-81
2022/04/05 02:26:40;;;;;;;3.53;3.22;;;6.50;99.90;;;;;;5069042;28;20030;-81
2022/04/05 02:29:06;;;;;;;4.07;3.58;;;6.50;99.90;;;;;;5070399;28;20121;-81
2022/04/05 02:31:32;;;;;;;5.15;3.53;;;6.50;99.90;;;;;;5069702;28;20028;-81
2022/04/05 02:33:58;;;;;;;3.95;3.30;;;6.50;99.90;;;;;;5070068;28;20131;-82
2022/04/05 02:36:24;;;;;;;4.95;3.45;;;6.60;99.90;;;;;;5068208;28;20037;-81
2022/04/05 02:38:49;;;;;;;3.92;3.20;;;6.50;99.90;;;;;;5069603;28;20040;-84
2022/04/05 02:41:15;;;;;;;4.60;3.35;;;6.50;99.90;;;;;;5051604;28;20046;-81
2022/04/05 02:43:41;;;;;;;4.18;3.55;;;6.50;99.90;;;;;;5069584;28;20023;-82
2022/04/05 02:46:08;;;;;;;4.00;3.60;;;6.50;99.90;;;;;;5069399;28;20550;-82
2022/04/05 02:48:34;;;;;;;3.72;3.00;;;6.60;99.90;;;;;;5068852;28;20423;-82
2022/04/05 02:50:59;;;;;;;4.55;2.83;;;6.60;99.90;;;;;;5069840;28;20031;-82
2022/04/05 02:53:25;;;;;;;3.50;3.03;;;6.60;99.90;;;;;;5068917;28;20024;-81
2022/04/05 02:55:51;;;;;;;3.00;2.70;;;6.70;99.90;;;;;;5069107;28;20025;-82
2022/04/05 02:58:16;;;;;;;3.30;2.53;;;6.60;99.90;;;;;;5070074;28;20095;-82
2022/04/05 03:00:42;;;;;;;6.57;3.40;;;6.60;99.90;;;;;;5069924;28;20518;-81
2022/04/05 03:03:07;;;;;;;3.25;2.72;;;6.70;99.90;;;;;;5069170;28;20017;-82
2022/04/05 03:05:33;;;;;;;3.22;2.85;;;6.70;99.90;;;;;;5069614;28;20032;-81
2022/04/05 03:07:58;;;;;;;3.75;2.85;;;6.70;99.90;;;;;;5069270;28;20029;-81
2022/04/05 03:10:25;;;;;;;3.28;2.83;;;6.60;99.90;;;;;;5069162;28;20033;-81
2022/04/05 03:12:50;;;;;;;3.53;2.80;;;6.60;99.90;;;;;;5068273;28;20016;-81
2022/04/05 03:15:16;;;;;;;2.97;2.67;;;6.60;99.90;;;;;;5050477;28;20028;-81
2022/04/05 03:17:44;;;;;;;3.25;2.78;;;6.70;99.90;;;;;;5071320;28;20028;-83
2022/04/05 03:20:13;;;;;;;3.25;2.70;;;6.70;99.90;;;;;;5070444;28;20040;-81
2022/04/05 03:22:42;;;;;;;2.78;2.15;;;6.70;99.90;;;;;;5081143;28;20028;-81
2022/04/05 03:25:10;;;;;;;2.17;1.75;;;6.70;99.90;;;;;;5051075;28;20084;-82
2022/04/05 03:27:40;;;;;;;2.58;2.28;;;6.70;99.90;;;;;;5050062;28;20461;-81
2022/04/05 03:30:08;;;;;;;2.42;2.22;;;6.60;99.90;;;;;;5069114;28;20484;-81
2022/04/05 03:32:33;;;;;;;2.58;2.20;;;6.60;99.90;;;;;;5059690;28;20221;-81
2022/04/05 03:34:59;;;;;;;2.25;1.88;;;6.50;99.90;;;;;;5067997;28;20630;-81
2022/04/05 03:37:24;;;;;;;2.30;1.98;;;6.60;99.90;;;;;;5066949;28;20025;-81
2022/04/05 03:39:50;;;;;;;2.60;2.13;;;6.50;99.90;;;;;;5035099;28;20382;-82
2022/04/05 03:42:16;;;;;;;2.40;1.83;;;6.60;99.90;;;;;;5060773;28;20074;-82
2022/04/05 03:44:41;;;;;;;2.47;2.28;;;6.60;99.90;;;;;;5071708;28;20461;-82
2022/04/05 03:47:07;;;;;;;2.33;2.10;;;6.60;99.90;;;;;;5070551;28;20029;-82
2022/04/05 03:49:32;;;;;;;2.55;2.00;;;6.70;99.90;;;;;;5071635;28;20450;-83
2022/04/05 03:51:58;;;;;;;2.58;2.10;;;6.60;99.90;;;;;;5053151;28;20029;-82
2022/04/05 03:54:23;;;;;;;2.47;1.88;;;6.60;99.90;;;;;;5071547;28;20032;-83
2022/04/05 03:56:49;;;;;;;2.42;2.00;;;6.70;99.90;;;;;;5052950;28;20032;-82
2022/04/05 03:59:14;;;;;;;2.20;2.00;;;6.70;99.90;;;;;;5053076;28;20036;-82
2022/04/05 04:01:40;;;;;;;2.40;2.17;;;6.70;99.90;;;;;;5071292;28;20380;-83
2022/04/05 04:04:05;;;;;;;2.15;1.95;;;6.60;99.90;;;;;;5071424;28;20020;-83
2022/04/05 04:06:30;;;;;;;2.63;2.38;;;6.60;99.90;;;;;;5070578;28;20033;-83
2022/04/05 04:08:56;;;;;;;2.50;2.10;;;6.60;99.90;;;;;;5036109;28;1013625;-82
2022/04/05 04:11:21;;;;;;;2.20;1.77;;;6.60;99.90;;;;;;5071919;28;20404;-83
2022/04/05 04:13:47;;;;;;;3.58;2.08;;;6.60;99.90;;;;;;5072659;28;20054;-83
2022/04/05 04:16:13;;;;;;;3.53;2.33;;;6.70;99.90;;;;;;5071339;28;20941;-82
2022/04/05 04:18:39;;;;;;;4.60;2.72;;;6.70;99.90;;;;;;5055727;28;20047;-83
2022/04/05 04:21:05;;;;;;;2.38;2.08;;;6.70;99.90;;;;;;5072504;28;20052;-83
2022/04/05 04:23:30;;;;;;;3.22;2.90;;;6.70;99.90;;;;;;5073209;28;20132;-82
2022/04/05 04:25:56;;;;;;;2.60;2.30;;;6.70;99.90;;;;;;5069635;28;20574;-83
2022/04/05 04:28:21;;;;;;;3.95;2.85;;;6.70;99.90;;;;;;5054575;28;20047;-83
2022/04/05 04:30:47;;;;;;;2.83;2.53;;;6.80;99.90;;;;;;5062894;28;20025;-82
2022/04/05 04:33:13;;;;;;;3.42;2.92;;;6.80;99.90;;;;;;5066963;28;20104;-82
2022/04/05 04:35:40;;;;;;;3.03;2.72;;;6.80;99.90;;;;;;5069742;28;20021;-82
2022/04/05 04:38:07;;;;;;;4.63;2.72;;;6.90;99.90;;;;;;5080573;28;20161;-83
2022/04/05 04:40:33;;;;;;;3.13;2.83;;;6.90;99.90;;;;;;5071234;28;20051;-83
2022/04/05 04:42:59;;;;;;;3.30;2.50;;;6.90;99.90;;;;;;5070104;28;20032;-83
2022/04/05 04:45:27;;;;;;;3.88;3.25;;;6.90;99.90;;;;;;5069116;28;20354;-83
2022/04/05 04:47:53;;;;;;;3.45;2.90;;;6.90;99.90;;;;;;5068541;28;20070;-83
2022/04/05 04:50:20;;;;;;;4.43;3.53;;;7.00;99.90;;;;;;5071564;28;20032;-83
2022/04/05 04:52:45;;;;;;;3.40;3.08;;;7.00;99.90;;;;;;5069801;28;20096;-83
2022/04/05 04:55:11;;;;;;;3.83;3.30;;;7.00;99.90;;;;;;5070235;28;20120;-83
2022/04/05 04:57:36;;;;;;;4.05;3.35;;;7.00;99.90;;;;;;5069156;28;20040;-82
2022/04/05 05:00:03;;;;;;;4.35;3.90;;;7.00;99.90;;;;;;5070051;28;20048;-82
2022/04/05 05:02:29;;;;;;;4.22;3.25;;;7.00;99.90;;;;;;5068568;28;20060;-82
2022/04/05 05:04:54;;;;;;;4.25;3.85;;;7.10;99.90;;;;;;5069837;28;20068;-82
2022/04/05 05:07:20;;;;;;;5.97;3.40;;;7.00;99.90;;;;;;5066512;28;20488;-83
2022/04/05 05:09:45;;;;;;;4.70;3.95;;;7.00;99.90;;;;;;5066867;28;20030;-84
2022/04/05 05:12:11;;;;;;;4.70;4.07;;;7.00;99.90;;;;;;5067947;28;20436;-81
2022/04/05 05:14:37;;;;;;;4.75;3.60;;;7.00;99.90;;;;;;5067526;28;20132;-83
2022/04/05 05:17:03;;;;;;;4.57;3.17;;;7.10;99.90;;;;;;5068047;28;20044;-83
2022/04/05 05:19:29;;;;;;;4.25;3.50;;;7.10;99.90;;;;;;5069526;28;20031;-83
2022/04/05 05:21:54;;;;;;;4.10;3.70;;;7.20;99.90;;;;;;5067978;28;20381;-84
2022/04/05 05:24:20;;;;;;;4.22;3.58;;;7.20;99.90;;;;;;5050071;28;20029;-83
2022/04/05 05:26:45;;;;;;;4.07;3.67;;;7.20;99.90;;;;;;5048899;28;20031;-82
2022/04/05 05:29:12;;;;;;;4.25;3.80;;;7.20;99.90;;;;;;5068896;28;20028;-82
2022/04/05 05:31:38;;;;;;;4.40;3.85;;;7.30;99.90;;;;;;5050089;28;20734;-81
2022/04/05 05:34:04;;;;;;;4.93;3.83;;;7.30;99.90;;;;;;5067306;28;20024;-83
2022/04/05 05:36:30;;;;;;;5.85;3.50;;;7.30;99.90;;;;;;5065365;28;20037;-81
2022/04/05 05:38:55;;;;;;;7.35;3.72;;;7.40;99.90;;;;;;5050177;28;20029;-83
2022/04/05 05:41:21;;;;;;;4.75;3.85;;;7.40;99.90;;;;;;5068047;28;20033;-82
2022/04/05 05:43:46;;;;;;;5.15;3.97;;;7.40;99.90;;;;;;5066524;28;20107;-82
2022/04/05 05:46:15;;;;;;;4.68;3.85;;;7.50;99.90;;;;;;5070653;28;20035;-82
2022/04/05 05:48:41;;;;;;;5.38;4.30;;;7.50;99.90;;;;;;5074183;28;20107;-82
2022/04/05 05:51:07;;;;;;;4.25;3.80;;;7.60;99.90;;;;;;5068895;28;20056;-82
2022/04/05 05:53:33;;;;;;;4.88;3.92;;;7.60;99.90;;;;;;5077531;28;20059;-82
2022/04/05 05:55:58;;;;;;;6.55;4.53;;;7.60;99.90;;;;;;5084590;28;20468;-82
2022/04/05 05:58:24;;;;;;;4.97;4.07;;;7.70;99.90;;;;;;5069106;28;20043;-82
2022/04/05 06:00:50;;;;;;;7.32;4.65;;;7.80;99.90;;;;;;5067604;28;20055;-82
2022/04/05 06:03:17;;;;;;;5.22;4.47;;;7.80;99.90;;;;;;5068575;28;20028;-82
2022/04/05 06:05:43;;;;;;;6.70;4.90;;;7.90;99.90;;;;;;5049719;28;20069;-82
2022/04/05 06:08:10;;;;;;;7.60;5.43;;;7.90;99.90;;;;;;5068208;28;20031;-82
2022/04/05 06:10:35;;;;;;;5.68;5.07;;;8.00;99.90;;;;;;5069116;28;20032;-82
2022/04/05 06:13:01;;;;;;;5.53;4.68;;;8.00;99.90;;;;;;5068089;28;20029;-82
2022/04/05 06:15:28;;;;;;;4.47;4.03;;;8.00;99.90;;;;;;5067588;28;20024;-82
2022/04/05 06:17:54;;;;;;;4.68;3.83;;;8.00;99.90;;;;;;5068098;28;20047;-82
2022/04/05 06:20:21;;;;;;;3.10;2.65;;;8.10;99.90;;;;;;5067857;28;20033;-82
2022/04/05 06:22:53;;;;;;;4.32;3.60;;;8.10;99.90;;;;;;5067148;28;20017;-82
2022/04/05 06:25:26;;;;;;;3.17;2.70;;;8.20;99.90;;;;;;5048854;28;20029;-82
2022/04/05 06:27:51;;;;;;;2.60;2.40;;;8.30;99.90;;;;;;5065114;28;20060;-82
2022/04/05 06:30:17;;;;;;;2.80;2.60;;;8.30;99.90;;;;;;5072935;28;20125;-81
2022/04/05 06:32:43;;;;;;;2.00;1.80;;;8.40;99.90;;;;;;5067802;28;20048;-81
2022/04/05 06:35:10;;;;;;;1.95;1.75;;;8.40;99.90;;;;;;5068170;28;20062;-82
2022/04/05 06:37:37;;;;;;;7.05;2.22;;;8.50;99.90;;;;;;5068369;28;20036;-81
2022/04/05 06:40:05;;;;;;;1.85;1.70;;;8.50;99.90;;;;;;5068898;28;20027;-81
2022/04/05 06:42:30;;;;;;;2.00;1.77;;;8.60;99.80;;;;;;5068064;28;20070;-81
2022/04/05 06:44:56;;;;;;;1.70;1.50;;;8.60;99.90;;;;;;5049540;28;20021;-82
2022/04/05 06:47:21;;;;;;;1.52;1.42;;;8.60;99.90;;;;;;5062492;28;20058;-81
2022/04/05 06:49:47;;;;;;;2.40;1.90;;;8.70;99.90;;;;;;5057664;28;20020;-81
2022/04/05 06:52:13;;;;;;;2.03;1.83;;;8.70;99.90;;;;;;5076334;28;20008;-81
2022/04/05 06:54:39;;;;;;;1.60;1.50;;;8.70;99.50;;;;;;5088617;28;20035;-81
2022/04/05 06:57:04;;;;;;;2.20;1.55;;;8.80;99.60;;;;;;5087810;28;20036;-81
2022/04/05 06:59:30;;;;;;;1.95;1.60;;;8.80;99.40;;;;;;5088977;28;20020;-81
2022/04/05 07:01:56;;;;;;;1.73;1.50;;;8.80;99.40;;;;;;5070483;28;20023;-83
2022/04/05 07:04:21;;;;;;;2.85;1.02;;;9.00;99.20;;;;;;5067709;28;20028;-81
2022/04/05 07:06:47;;;;;;;1.45;1.35;;;9.00;98.80;;;;;;5066711;28;20048;-82
2022/04/05 07:09:12;;;;;;;2.03;1.60;;;9.10;98.90;;;;;;5068587;28;20042;-81
2022/04/05 07:11:39;;;;;;;1.58;1.42;;;9.20;98.60;;;;;;5067531;28;20107;-81
2022/04/05 07:14:04;;;;;;;3.28;1.27;;;9.20;98.50;;;;;;5049754;28;20063;-80
2022/04/05 07:16:30;;;;;;;1.35;1.23;;;9.20;98.10;;;;;;5071155;28;20064;-81
2022/04/05 07:18:55;;;;;;;2.63;1.05;;;9.30;98.00;;;;;;5053689;28;20362;-81
2022/04/05 07:21:21;;;;;;;2.33;1.27;;;9.40;97.90;;;;;;5073931;28;20024;-81
2022/04/05 07:23:47;;;;;;;2.08;1.17;;;9.40;97.60;;;;;;5071737;28;20519;-81
2022/04/05 07:26:13;;;;;;;1.00;0.88;;;9.50;97.70;;;;;;5053151;28;20441;-81
2022/04/05 07:28:39;;;;;;;0.85;0.75;;;9.50;97.40;;;;;;5059214;28;20036;-81
2022/04/05 07:31:05;;;;;;;0.60;0.57;;;9.60;97.30;;;;;;5053044;28;20068;-82
2022/04/05 07:33:30;;;;;;;1.58;0.77;;;9.50;97.00;;;;;;5053919;28;20016;-80
2022/04/05 07:35:56;;;;;;;0.85;0.85;;;9.50;97.20;;;;;;5070611;28;20039;-82
2022/04/05 07:38:21;;;;;;;0.90;0.80;;;9.50;97.30;;;;;;5053172;28;20075;-82
2022/04/05 07:40:50;;;;;;;1.33;0.98;;;9.70;97.50;;;;;;5053192;28;20369;-82
2022/04/05 07:43:21;;;;;;;0.85;0.80;;;9.80;97.00;;;;;;5064995;28;20690;-82
2022/04/05 07:45:49;;;;;;;1.85;0.70;;;9.90;97.10;;;;;;5057345;28;20515;-83
2022/04/05 07:48:21;;;;;;;1.45;1.00;;;10.10;96.50;;;;;;5071302;28;20020;-83
2022/04/05 07:50:48;;;;;;;1.50;0.95;;;10.10;96.20;;;;;;5051556;28;20429;-83
2022/04/05 07:53:14;;;;;;;1.10;0.77;;;10.20;96.20;;;;;;5070994;28;20024;-82
2022/04/05 07:55:40;;;;;;;1.58;1.00;;;10.10;95.80;;;;;;5070011;28;20021;-83
2022/04/05 07:58:05;;;;;;;1.60;0.90;;;10.00;96.00;;;;;;5070907;28;20032;-83
2022/04/05 08:00:32;;;;;;;1.00;0.60;;;10.00;96.50;;;;;;5053310;28;20035;-83
2022/04/05 08:02:57;;;;;;;1.08;0.85;;;10.00;96.20;;;;;;5052147;28;20035;-83
2022/04/05 08:05:23;;;;;;;1.33;0.80;;;9.90;96.10;;;;;;5051474;28;20025;-84
2022/04/05 08:07:50;;;;;;;3.28;0.90;;;9.80;96.20;;;;;;5052849;28;20127;-85
2022/04/05 08:10:15;;;;;;;0.88;0.80;;;9.70;96.60;;;;;;5053483;28;20457;-83
2022/04/05 08:12:43;;;;;;;1.02;0.93;;;9.60;96.60;;;;;;5052479;28;20154;-84
2022/04/05 08:15:13;;;;;;;1.30;1.00;;;9.50;96.50;;;;;;5052744;28;20025;-84
2022/04/05 08:17:39;;;;;;;1.13;1.02;;;9.50;96.70;;;;;;5070708;28;20032;-84
2022/04/05 08:20:05;;;;;;;0.98;0.88;;;9.50;96.70;;;;;;5071089;28;20358;-83
2022/04/05 08:22:31;;;;;;;1.88;1.10;;;9.50;96.80;;;;;;5070587;28;20031;-83
2022/04/05 08:24:58;;;;;;;1.80;0.95;;;9.50;96.50;;;;;;5069568;28;20683;-82
2022/04/05 08:27:23;;;;;;;4.38;1.23;;;9.40;96.90;;;;;;5069675;28;20469;-82
2022/04/05 08:29:49;;;;;;;4.07;1.00;;;9.40;97.00;;;;;;5051338;28;20066;-82
2022/04/05 08:32:14;;;;;;;4.63;1.20;;;9.20;97.10;;;;;;5070206;28;20035;-82
2022/04/05 08:34:42;;;;;;;3.10;1.55;;;9.10;97.50;;;;;;5068983;28;20017;-85
2022/04/05 08:37:08;;;;;;;4.78;1.17;;;8.90;97.80;;;;;;5069175;28;20113;-83
2022/04/05 08:39:35;;;;;;;131.38;62.70;;;8.70;98.10;;;;;;5056051;28;20020;-84
2022/04/05 08:42:01;;;;;;;12.15;7.47;;;8.50;98.50;;;;;;5089974;28;20021;-83
2022/04/05 08:44:29;;;;;;;6.63;2.70;;;8.30;99.00;;;;;;5061066;28;20021;-84
2022/04/05 08:46:54;;;;;;;7.10;3.67;;;8.10;99.60;;;;;;5069263;28;20036;-83
2022/04/05 08:49:21;;;;;;;6.30;3.50;;;8.10;99.90;;;;;;5053988;28;20032;-83
2022/04/05 08:51:47;;;;;;;9.52;3.97;;;8.00;99.90;;;;;;5064588;28;20019;-83
2022/04/05 08:54:12;;;;;;;6.63;3.13;;;7.90;99.90;;;;;;5069173;28;20107;-84
2022/04/05 08:56:39;;;;;;;8.60;2.88;;;8.00;99.90;;;;;;5069413;28;20040;-83
2022/04/05 08:59:04;;;;;;;4.45;2.08;;;8.10;99.90;;;;;;5057273;28;20083;-83
2022/04/05 09:01:30;;;;;;;4.80;1.98;;;8.20;99.90;;;;;;5060186;28;20420;-83
2022/04/05 09:03:59;;;;;;;3.58;1.65;;;8.20;99.90;;;;;;5069456;28;20058;-83
2022/04/05 09:06:28;;;;;;;6.80;1.88;;;8.30;99.90;;;;;;5050121;28;20068;-83
2022/04/05 09:09:16;;;;;;;8.20;2.53;;;8.40;99.90;;;;;;5051833;28;20561;-85
2022/04/05 09:11:47;;;;;;;5.22;1.75;;;8.40;99.90;;;;;;5051810;28;20116;-85
2022/04/05 09:14:13;;;;;;;6.38;2.53;;;8.50;99.90;;;;;;5068395;28;20027;-86
2022/04/05 09:16:39;;;;;;;6.72;3.17;;;8.50;99.90;;;;;;5068618;28;20111;-83
2022/04/05 09:19:13;;;;;;;6.85;3.88;;;8.60;99.90;;;;;;5051962;28;20115;-83
2022/04/05 09:21:50;;;;;;;9.57;6.30;;;8.70;99.90;;;;;;5051629;28;20047;-84
2022/04/05 09:24:15;;;;;;;8.65;2.15;;;8.70;99.90;;;;;;5050843;28;20023;-84
2022/04/05 09:26:43;;;;;;;8.90;3.05;;;8.80;99.90;;;;;;5068564;28;20396;-83
2022/04/05 09:29:09;;;;;;;3.90;1.88;;;9.00;99.90;;;;;;5069836;28;20028;-83
2022/04/05 09:31:48;;;;;;;5.00;2.00;;;9.00;99.60;;;;;;5067959;28;20080;-82
2022/04/05 09:34:19;;;;;;;7.75;3.78;;;9.00;99.40;;;;;;5069215;28;20032;-83
2022/04/05 09:36:48;;;;;;;7.43;3.70;;;9.00;99.70;;;;;;5049248;28;20029;-84
2022/04/05 09:39:17;;;;;;;4.50;2.55;;;9.10;99.30;;;;;;5068986;28;20078;-84
2022/04/05 09:41:44;;;;;;;6.70;4.28;;;9.20;99.30;;;;;;5069663;28;20100;-83
2022/04/05 09:44:10;;;;;;;4.82;3.38;;;9.30;99.10;;;;;;5068554;28;20017;-84
2022/04/05 09:46:37;;;;;;;2.50;2.10;;;9.40;99.10;;;;;;5052299;28;20123;-83
2022/04/05 09:49:13;;;;;;;3.15;2.13;;;9.40;98.60;;;;;;5051115;28;20056;-84
2022/04/05 09:51:45;;;;;;;8.88;4.53;;;9.50;98.40;;;;;;5068930;28;20035;-84
2022/04/05 09:54:22;;;;;;;6.55;2.72;;;9.40;98.10;;;;;;5068566;28;20021;-83
2022/04/05 09:56:48;;;;;;;8.13;2.78;;;9.30;98.50;;;;;;5049951;28;20380;-83
2022/04/05 09:59:19;;;;;;;4.25;2.22;;;9.20;98.60;;;;;;5051173;28;20024;-83
2022/04/05 10:01:47;;;;;;;4.63;2.08;;;9.00;98.30;;;;;;5068668;28;20056;-83
2022/04/05 10:04:15;;;;;;;5.85;3.50;;;9.00;98.60;;;;;;5068269;28;20496;-84
2022/04/05 10:06:44;;;;;;;5.53;2.47;;;9.00;98.70;;;;;;5049962;28;20036;-84
2022/04/05 10:09:11;;;;;;;5.05;2.10;;;9.10;99.00;;;;;;5050271;28;20373;-84
2022/04/05 10:11:38;;;;;;;11.02;8.07;;;9.20;99.20;;;;;;5068257;28;20028;-83
2022/04/05 10:14:05;;;;;;;6.03;3.22;;;9.30;99.20;;;;;;5060547;28;20036;-84
2022/04/05 10:16:32;;;;;;;6.03;2.63;;;9.50;98.30;;;;;;5049386;28;20031;-84
2022/04/05 10:19:00;;;;;;;3.20;1.80;;;9.80;98.20;;;;;;5064327;28;20449;-85
2022/04/05 10:21:27;;;;;;;6.22;1.75;;;10.10;97.80;;;;;;5068352;28;20591;-84
2022/04/05 10:23:57;;;;;;;5.47;3.33;;;10.40;97.10;;;;;;5068285;28;20052;-84
2022/04/05 10:26:27;;;;;;;4.97;2.67;;;10.60;96.60;;;;;;5067374;28;20229;-83
2022/04/05 10:28:55;;;;;;;6.93;6.22;;;10.80;96.40;;;;;;5052824;28;20035;-84
2022/04/05 10:31:36;;;;;;;10.88;6.70;;;11.10;95.90;;;;;;5064129;28;20039;-84
2022/04/05 10:34:39;;;;;;;5.25;1.73;;;11.20;95.60;;;;;;5068003;28;20705;-83
2022/04/05 10:37:18;;;;;;;5.43;1.95;;;11.50;96.20;;;;;;5057270;28;20037;-83
2022/04/05 10:40:10;;;;;;;6.07;1.70;;;11.70;95.10;;;;;;5050246;28;20032;-84
2022/04/05 10:42:51;;;;;;;3.90;1.60;;;12.00;94.20;;;;;;5067773;28;20027;-84
2022/04/05 10:45:17;;;;;;;2.70;1.70;;;12.20;94.40;;;;;;5053299;28;20547;-83
2022/04/05 10:48:18;;;;;;;2.75;1.48;;;12.50;93.70;;;;;;5073748;28;20060;-83
2022/04/05 10:51:00;;;;;;;5.00;1.73;;;12.70;93.00;;;;;;5023359;28;20032;-84
2022/04/05 10:53:37;;;;;;;4.87;1.93;;;12.80;92.80;;;;;;5074646;28;20455;-85
2022/04/05 10:56:07;;;;;;;1.70;1.20;;;13.00;93.00;;;;;;5067183;28;20035;-84
2022/04/05 10:58:34;;;;;;;5.60;2.17;;;13.10;92.70;;;;;;5056327;28;20025;-84
2022/04/05 11:01:23;;;;;;;2.70;1.63;;;13.20;92.30;;;;;;5067033;28;20035;-84
2022/04/05 11:04:18;;;;;;;5.68;2.80;;;13.30;92.90;;;;;;5066100;28;20114;-84
2022/04/05 11:07:01;;;;;;;5.30;2.53;;;13.50;91.50;;;;;;5061350;28;20115;-85
2022/04/05 11:09:30;;;;;;;4.15;1.50;;;13.60;92.30;;;;;;5067375;28;20025;-79
2022/04/05 11:11:56;;;;;;;2.70;1.50;;;13.60;91.60;;;;;;5066774;28;20179;-84
2022/04/05 11:14:53;;;;;;;3.45;1.65;;;13.70;92.30;;;;;;5054804;28;20024;-84
2022/04/05 11:17:22;;;;;;;3.88;2.97;;;13.80;91.90;;;;;;5032669;28;20060;-85
2022/04/05 11:19:50;;;;;;;4.18;2.05;;;13.70;90.70;;;;;;5052276;28;20025;-85
2022/04/05 11:22:22;;;;;;;4.50;2.42;;;13.60;90.80;;;;;;5067796;28;20445;-84
2022/04/05 11:25:10;;;;;;;5.03;2.00;;;13.40;91.30;;;;;;5055721;28;20028;-85
2022/04/05 11:27:46;;;;;;;4.63;2.97;;;13.20;91.60;;;;;;5047426;28;20139;-84
2022/04/05 11:30:25;;;;;;;4.90;2.15;;;13.10;92.00;;;;;;5071388;28;20101;-84
2022/04/05 11:33:09;;;;;;;2.85;1.60;;;12.70;92.10;;;;;;5049325;28;20189;-85
2022/04/05 11:35:49;;;;;;;4.43;2.10;;;12.50;92.60;;;;;;5069691;28;20180;-84
2022/04/05 11:38:17;;;;;;;3.55;1.60;;;12.50;93.30;;;;;;5069454;28;20138;-84
2022/04/05 11:40:54;;;;;;;4.07;1.92;;;12.50;94.10;;;;;;5070308;28;20024;-84
2022/04/05 11:43:22;;;;;;;2.60;1.90;;;12.50;93.90;;;;;;5068546;28;20109;-84
2022/04/05 11:45:48;;;;;;;6.78;2.40;;;12.60;93.70;;;;;;5051716;28;20025;-84
2022/04/05 11:48:18;;;;;;;3.55;2.08;;;12.60;93.50;;;;;;5054349;28;20029;-85
2022/04/05 11:50:43;;;;;;;6.13;2.08;;;12.50;93.90;;;;;;5051172;28;20016;-84
2022/04/05 11:53:21;;;;;;;4.20;1.83;;;12.50;93.60;;;;;;5069525;28;20035;-84
2022/04/05 11:56:05;;;;;;;3.58;2.03;;;12.50;94.20;;;;;;5049634;28;20025;-85
2022/04/05 11:58:34;;;;;;;5.50;2.20;;;12.60;93.90;;;;;;5069423;28;20170;-84
2022/04/05 12:01:01;;;;;;;3.17;2.30;;;12.60;94.00;;;;;;5072145;28;20461;-85
2022/04/05 12:03:27;;;;;;;2.22;1.55;;;12.60;93.90;;;;;;5055579;28;20417;-84
2022/04/05 12:05:53;;;;;;;2.95;1.67;;;12.70;93.90;;;;;;5073180;28;20102;-84
2022/04/05 12:08:18;;;;;;;2.13;1.20;;;12.60;93.70;;;;;;5073854;28;20485;-84
2022/04/05 12:10:45;;;;;;;1.30;1.00;;;12.60;93.40;;;;;;5072634;28;20088;-85
2022/04/05 12:13:10;;;;;;;3.20;1.30;;;12.50;93.60;;;;;;5072629;28;20024;-85
2022/04/05 12:15:37;;;;;;;1.10;0.90;;;12.40;94.00;;;;;;5071705;28;20291;-84
2022/04/05 12:18:20;;;;;;;1.20;0.90;;;12.30;93.60;;;;;;5053412;28;20029;-84
2022/04/05 12:21:05;;;;;;;1.00;0.90;;;12.20;93.40;;;;;;5053142;28;20111;-84
2022/04/05 12:23:42;;;;;;;1.50;0.85;;;12.00;94.60;;;;;;5071269;28;20024;-83
2022/04/05 12:26:11;;;;;;;5.50;1.45;;;11.90;94.60;;;;;;5070884;28;20028;-84
2022/04/05 12:28:45;;;;;;;5.18;1.42;;;11.80;94.60;;;;;;5054718;28;20037;-84
2022/04/05 12:31:15;;;;;;;2.08;1.30;;;11.80;95.50;;;;;;5072545;28;20063;-84
2022/04/05 12:33:52;;;;;;;1.88;1.33;;;11.90;94.60;;;;;;5052655;28;20022;-84
2022/04/05 12:36:19;;;;;;;1.77;1.58;;;11.90;94.70;;;;;;5071687;28;20013;-84
2022/04/05 12:38:44;;;;;;;1.20;1.08;;;12.00;94.80;;;;;;5072397;28;20032;-84
2022/04/05 12:41:14;;;;;;;2.05;1.50;;;12.10;94.90;;;;;;5086127;28;20044;-84
2022/04/05 12:43:40;;;;;;;1.45;1.13;;;12.10;94.70;;;;;;5074217;28;20016;-84
2022/04/05 12:46:14;;;;;;;1.80;1.42;;;12.10;94.70;;;;;;5073619;28;20024;-84
2022/04/05 12:48:41;;;;;;;2.97;1.85;;;12.00;94.80;;;;;;5093056;28;20024;-84
2022/04/05 12:51:08;;;;;;;2.35;1.40;;;12.00;95.00;;;;;;5075186;28;20059;-84
2022/04/05 12:53:37;;;;;;;1.70;1.42;;;12.00;95.10;;;;;;5060897;28;20385;-84
2022/04/05 12:56:13;;;;;;;4.28;1.73;;;12.00;95.20;;;;;;5053736;28;20031;-84
2022/04/05 12:58:42;;;;;;;2.28;2.08;;;11.90;95.50;;;;;;5054984;28;20122;-84